Time;durP1;ratioP1;P1;durP2;ratioP2;P2;SDS_P1;SDS_P2;PMS_P1;PMS_P2;Temp;Humidity;BMP_temperature;BMP_pressure;BME280_temperature;BME280_humidity;BME280_pressure;Samples;Min_cycle;Max_cycle;Signal;HPM_P1;HPM_P2
2022/10/29 03:02:33;;;;;;;0.97;0.87;;;18.50;71.70;;;;;;5284620;22;20504;-74
2022/10/29 03:05:00;;;;;;;0.90;0.80;;;18.50;72.10;;;;;;5077046;28;20442;-74
2022/10/29 03:07:26;;;;;;;1.57;0.80;;;18.60;71.60;;;;;;5077020;28;20842;-75
2022/10/29 03:09:53;;;;;;;0.93;0.93;;;18.60;72.00;;;;;;5077019;28;20452;-74
2022/10/29 03:12:20;;;;;;;0.73;0.73;;;18.70;72.00;;;;;;5077067;28;20457;-74
2022/10/29 03:14:46;;;;;;;1.10;1.00;;;18.70;72.00;;;;;;5078300;28;20445;-74
2022/10/29 03:17:13;;;;;;;0.90;0.90;;;18.60;72.80;;;;;;5076009;28;21003;-74
2022/10/29 03:19:41;;;;;;;0.80;0.80;;;18.60;72.90;;;;;;5077077;28;20450;-74
2022/10/29 03:22:08;;;;;;;1.13;0.77;;;18.60;72.20;;;;;;5077241;28;20465;-74
2022/10/29 03:24:35;;;;;;;1.53;0.80;;;18.50;72.30;;;;;;5077447;28;20457;-75
2022/10/29 03:27:01;;;;;;;1.10;1.00;;;18.40;72.40;;;;;;5077287;28;20453;-74
2022/10/29 03:29:28;;;;;;;0.83;0.80;;;18.40;72.60;;;;;;5075662;28;20450;-75
2022/10/29 03:31:55;;;;;;;0.90;0.80;;;18.40;72.50;;;;;;5074723;28;20477;-74
2022/10/29 03:34:22;;;;;;;1.20;0.97;;;18.40;71.90;;;;;;5074132;28;20454;-74
2022/10/29 03:36:50;;;;;;;0.87;0.87;;;18.20;71.80;;;;;;5074005;28;20527;-74
2022/10/29 03:39:17;;;;;;;1.10;1.00;;;18.10;72.20;;;;;;5074015;28;20453;-74
2022/10/29 03:41:43;;;;;;;1.37;1.27;;;18.10;72.00;;;;;;5074309;28;20473;-74
2022/10/29 03:44:10;;;;;;;3.00;1.17;;;18.10;71.40;;;;;;5074314;28;20449;-74
2022/10/29 03:46:37;;;;;;;1.20;1.10;;;18.10;71.60;;;;;;5074746;28;20472;-74
2022/10/29 03:49:03;;;;;;;0.80;0.80;;;18.20;71.10;;;;;;5074101;28;20457;-74
2022/10/29 03:51:30;;;;;;;0.90;0.90;;;18.20;70.40;;;;;;5074371;28;20478;-74
2022/10/29 03:53:58;;;;;;;0.93;0.93;;;18.30;70.20;;;;;;5074392;28;20446;-74
2022/10/29 03:56:25;;;;;;;0.93;0.80;;;18.20;70.60;;;;;;5074422;28;20449;-74
2022/10/29 03:58:52;;;;;;;0.70;0.70;;;18.30;69.40;;;;;;5074472;28;20493;-74
2022/10/29 04:01:18;;;;;;;1.47;0.90;;;18.40;69.80;;;;;;5074535;28;20478;-74
2022/10/29 04:03:45;;;;;;;0.90;0.90;;;18.40;69.40;;;;;;5074879;28;20448;-74
2022/10/29 04:06:14;;;;;;;1.10;1.00;;;18.30;69.60;;;;;;5077547;28;20948;-74
2022/10/29 04:08:41;;;;;;;1.27;0.90;;;18.30;70.10;;;;;;5079006;28;20448;-74
2022/10/29 04:11:11;;;;;;;0.80;0.80;;;18.20;70.60;;;;;;5078907;28;20470;-74
2022/10/29 04:13:38;;;;;;;0.90;0.90;;;18.20;70.70;;;;;;5078644;28;20909;-74
2022/10/29 04:16:05;;;;;;;0.80;0.70;;;18.20;70.30;;;;;;5078950;28;20457;-74
2022/10/29 04:18:32;;;;;;;0.77;0.77;;;18.20;70.50;;;;;;5078663;28;20484;-74
2022/10/29 04:21:00;;;;;;;1.20;0.80;;;18.20;70.30;;;;;;5078761;28;20474;-74
2022/10/29 04:23:27;;;;;;;0.97;0.97;;;18.20;70.40;;;;;;5078054;28;20489;-75
2022/10/29 04:25:57;;;;;;;1.00;0.90;;;18.30;70.40;;;;;;5077934;28;20457;-74
2022/10/29 04:28:26;;;;;;;1.00;0.90;;;18.30;70.00;;;;;;5077751;28;20449;-75
2022/10/29 04:30:53;;;;;;;1.00;0.90;;;18.50;70.10;;;;;;5077358;28;20836;-75
2022/10/29 04:33:20;;;;;;;1.00;0.90;;;18.50;69.70;;;;;;5077158;28;20452;-75
2022/10/29 04:35:52;;;;;;;0.90;0.90;;;18.50;69.80;;;;;;5077142;28;20438;-74
2022/10/29 04:38:19;;;;;;;1.20;1.13;;;18.60;69.40;;;;;;5076762;28;20508;-74
2022/10/29 04:40:46;;;;;;;0.70;0.70;;;18.60;69.80;;;;;;5076641;28;20961;-74
2022/10/29 04:43:13;;;;;;;1.07;1.00;;;18.60;69.30;;;;;;5076723;28;20452;-74
2022/10/29 04:45:41;;;;;;;1.07;0.97;;;18.60;69.50;;;;;;5076799;28;20442;-75
2022/10/29 04:48:08;;;;;;;1.20;1.10;;;18.50;69.90;;;;;;5077849;28;20438;-75
2022/10/29 04:50:37;;;;;;;1.00;1.00;;;18.50;69.80;;;;;;5078671;28;20499;-77
2022/10/29 04:53:05;;;;;;;1.00;0.90;;;18.50;72.40;;;;;;5079159;28;20445;-75
2022/10/29 04:55:35;;;;;;;1.17;1.00;;;18.40;70.80;;;;;;5079253;28;20456;-76
2022/10/29 04:58:02;;;;;;;1.07;1.00;;;18.40;70.50;;;;;;5079003;28;20896;-74
2022/10/29 05:00:28;;;;;;;0.90;0.80;;;18.30;70.40;;;;;;5079295;28;20445;-76
2022/10/29 05:02:57;;;;;;;0.70;0.70;;;18.30;71.30;;;;;;5080165;28;20453;-74
2022/10/29 05:05:23;;;;;;;0.93;0.90;;;18.20;70.30;;;;;;5082034;28;20461;-74
2022/10/29 05:07:56;;;;;;;0.70;0.70;;;18.30;70.30;;;;;;5080584;28;20468;-74
2022/10/29 05:10:23;;;;;;;0.90;0.80;;;18.40;70.20;;;;;;5079041;28;20445;-72
2022/10/29 05:12:56;;;;;;;0.70;0.70;;;18.50;70.00;;;;;;5079391;28;20453;-74
2022/10/29 05:15:23;;;;;;;0.90;0.90;;;18.60;69.80;;;;;;5078311;28;20430;-74
2022/10/29 05:17:50;;;;;;;0.97;0.87;;;18.50;69.80;;;;;;5078920;28;20477;-74
2022/10/29 05:20:18;;;;;;;0.77;0.70;;;18.60;69.60;;;;;;5079507;28;20452;-74
2022/10/29 05:22:44;;;;;;;0.70;0.70;;;18.60;69.30;;;;;;5080115;28;20466;-74
2022/10/29 05:25:11;;;;;;;1.10;1.00;;;18.70;69.30;;;;;;5080340;28;20454;-75
2022/10/29 05:27:38;;;;;;;1.07;1.00;;;18.70;69.60;;;;;;5079891;28;20451;-75
2022/10/29 05:30:06;;;;;;;0.97;0.97;;;18.70;69.30;;;;;;5080222;28;20460;-74
2022/10/29 05:32:33;;;;;;;0.80;0.80;;;18.80;69.30;;;;;;5080243;28;20977;-75
2022/10/29 05:35:00;;;;;;;0.80;0.80;;;18.30;71.20;;;;;;5080341;28;20438;-75
2022/10/29 05:37:28;;;;;;;1.00;1.00;;;18.10;72.30;;;;;;5080478;28;20458;-75
2022/10/29 05:39:54;;;;;;;1.03;0.93;;;18.10;72.60;;;;;;5080395;28;20452;-74
2022/10/29 05:42:21;;;;;;;1.10;1.00;;;17.90;73.00;;;;;;5079183;28;20462;-74
2022/10/29 05:44:48;;;;;;;1.00;0.90;;;18.00;73.00;;;;;;5078560;28;20457;-72
2022/10/29 05:47:15;;;;;;;0.73;0.73;;;18.00;73.00;;;;;;5078548;28;20434;-74
2022/10/29 05:49:41;;;;;;;1.20;1.10;;;18.00;72.80;;;;;;5078908;28;20941;-74
2022/10/29 05:52:08;;;;;;;1.10;0.80;;;17.90;72.90;;;;;;5078768;28;20466;-74
2022/10/29 05:54:36;;;;;;;0.80;0.80;;;17.90;73.00;;;;;;5077584;28;20442;-73
2022/10/29 05:57:03;;;;;;;1.10;1.00;;;17.90;73.10;;;;;;5078523;28;20445;-73
2022/10/29 05:59:29;;;;;;;1.10;1.10;;;17.90;73.20;;;;;;5077958;28;20493;-74
2022/10/29 06:01:56;;;;;;;1.03;0.93;;;17.80;73.30;;;;;;5076233;28;20496;-74
2022/10/29 06:04:23;;;;;;;1.10;1.00;;;17.80;73.40;;;;;;5076706;28;20453;-75
2022/10/29 06:06:50;;;;;;;1.17;1.00;;;17.70;73.70;;;;;;5076590;28;20457;-74
2022/10/29 06:09:16;;;;;;;1.10;1.00;;;17.70;73.60;;;;;;5077027;28;20445;-74
2022/10/29 06:11:44;;;;;;;0.80;0.80;;;17.70;73.70;;;;;;5076821;28;20833;-74
2022/10/29 06:14:11;;;;;;;1.00;0.90;;;17.70;73.60;;;;;;5076930;28;20442;-75
2022/10/29 06:16:38;;;;;;;0.90;0.87;;;17.80;73.50;;;;;;5076214;28;20449;-76
2022/10/29 06:19:04;;;;;;;1.53;0.97;;;17.80;73.60;;;;;;5075479;28;20478;-76
2022/10/29 06:21:31;;;;;;;1.10;1.00;;;17.80;73.60;;;;;;5075142;28;20474;-76
2022/10/29 06:23:58;;;;;;;1.03;1.03;;;17.80;73.30;;;;;;5075431;28;20460;-75
2022/10/29 06:26:24;;;;;;;1.20;1.07;;;17.80;73.70;;;;;;5075126;28;20445;-76
2022/10/29 06:28:52;;;;;;;1.40;1.00;;;17.80;73.80;;;;;;5074829;28;20937;-73
2022/10/29 06:31:19;;;;;;;0.93;0.93;;;17.90;73.80;;;;;;5077263;28;20465;-74
2022/10/29 06:33:46;;;;;;;1.53;0.90;;;17.80;73.70;;;;;;5077747;28;20450;-74
2022/10/29 06:36:13;;;;;;;0.80;0.80;;;17.80;73.80;;;;;;5078047;28;20442;-75
2022/10/29 06:38:39;;;;;;;1.20;1.10;;;17.90;73.80;;;;;;5077679;28;20481;-75
2022/10/29 06:41:06;;;;;;;0.90;0.80;;;17.90;73.80;;;;;;5076670;28;20480;-75
2022/10/29 06:43:33;;;;;;;1.00;0.90;;;18.10;73.70;;;;;;5076312;28;20450;-78
2022/10/29 06:46:01;;;;;;;1.00;0.90;;;18.20;73.40;;;;;;5076846;28;20471;-78
2022/10/29 06:48:27;;;;;;;1.07;0.77;;;18.40;73.10;;;;;;5075641;28;20450;-74
2022/10/29 06:50:54;;;;;;;1.00;0.90;;;18.60;72.40;;;;;;5076527;28;20466;-75
2022/10/29 06:53:21;;;;;;;1.30;1.20;;;18.90;71.80;;;;;;5076578;28;20446;-75
2022/10/29 06:55:48;;;;;;;2.40;0.90;;;19.10;71.40;;;;;;5076708;28;20442;-75
2022/10/29 06:58:16;;;;;;;1.00;0.90;;;19.30;70.90;;;;;;5075566;28;21015;-74
2022/10/29 07:00:44;;;;;;;0.80;0.80;;;19.70;70.20;;;;;;5075815;28;20466;-75
2022/10/29 07:03:13;;;;;;;0.80;0.80;;;20.20;68.90;;;;;;5076080;28;20426;-75
2022/10/29 07:05:40;;;;;;;0.77;0.77;;;20.70;67.20;;;;;;5076051;28;20473;-75
2022/10/29 07:08:07;;;;;;;0.80;0.80;;;21.40;65.60;;;;;;5076335;28;20468;-75
2022/10/29 07:10:34;;;;;;;1.03;0.93;;;22.30;63.50;;;;;;5076251;28;20444;-75
2022/10/29 07:13:01;;;;;;;1.17;0.80;;;23.20;61.10;;;;;;5075174;28;20953;-76
2022/10/29 07:15:29;;;;;;;1.30;0.90;;;24.00;59.10;;;;;;5075759;28;20449;-76
2022/10/29 07:17:57;;;;;;;1.70;1.10;;;24.80;57.20;;;;;;5074173;28;20453;-77
2022/10/29 07:20:25;;;;;;;1.77;1.17;;;25.40;56.80;;;;;;5075173;28;20450;-76
2022/10/29 07:22:52;;;;;;;0.80;0.80;;;25.80;55.10;;;;;;5074819;28;20449;-77
2022/10/29 07:25:19;;;;;;;0.80;0.80;;;26.10;54.20;;;;;;5073518;28;20485;-78
2022/10/29 07:27:47;;;;;;;1.00;0.90;;;26.20;54.10;;;;;;5073467;28;20449;-77
2022/10/29 07:30:13;;;;;;;0.80;0.80;;;26.40;53.70;;;;;;5073155;28;20827;-77
2022/10/29 07:32:40;;;;;;;0.97;0.90;;;26.90;52.70;;;;;;5073237;28;20474;-77
2022/10/29 07:35:07;;;;;;;1.37;0.80;;;27.30;51.90;;;;;;5074438;28;20449;-79
2022/10/29 07:37:35;;;;;;;1.20;1.07;;;27.50;52.30;;;;;;5077348;28;20496;-78
2022/10/29 07:40:02;;;;;;;1.10;1.00;;;27.90;51.40;;;;;;5074605;28;20485;-78
2022/10/29 07:42:29;;;;;;;0.90;0.83;;;28.40;50.40;;;;;;5076600;28;20477;-74
2022/10/29 07:44:56;;;;;;;1.27;0.80;;;28.80;49.70;;;;;;5079505;28;20438;-80
2022/10/29 07:47:22;;;;;;;0.80;0.80;;;29.40;48.90;;;;;;5077677;28;20441;-77
2022/10/29 07:49:49;;;;;;;0.90;0.90;;;29.90;48.00;;;;;;5081630;28;20442;-78
2022/10/29 07:52:16;;;;;;;1.20;1.10;;;30.20;47.10;;;;;;5082952;28;20472;-80
2022/10/29 07:54:44;;;;;;;0.83;0.83;;;30.40;46.70;;;;;;5080643;28;20453;-79
2022/10/29 07:57:11;;;;;;;1.00;1.00;;;30.50;46.60;;;;;;5081467;28;20473;-79
2022/10/29 07:59:37;;;;;;;0.90;0.90;;;31.00;46.10;;;;;;5078245;28;21027;-79
2022/10/29 08:02:04;;;;;;;0.90;0.90;;;31.30;45.40;;;;;;5073179;28;20473;-74
2022/10/29 08:04:31;;;;;;;1.33;0.90;;;31.60;45.10;;;;;;5073388;28;20441;-72
2022/10/29 08:06:57;;;;;;;1.13;0.80;;;32.00;44.80;;;;;;5073613;28;20446;-73
2022/10/29 08:09:24;;;;;;;0.80;0.80;;;31.70;44.70;;;;;;5073004;28;20441;-73
2022/10/29 08:11:52;;;;;;;0.90;0.90;;;30.80;46.50;;;;;;5072837;28;20468;-73
2022/10/29 08:14:19;;;;;;;0.90;0.90;;;29.00;48.10;;;;;;5072952;28;20472;-75
2022/10/29 08:16:45;;;;;;;0.90;0.90;;;27.70;50.50;;;;;;5072610;28;20448;-74
2022/10/29 08:19:12;;;;;;;1.30;1.20;;;26.40;53.90;;;;;;5072783;28;20492;-75
2022/10/29 08:21:39;;;;;;;4.33;1.00;;;25.80;55.40;;;;;;5073080;28;20469;-75
2022/10/29 08:24:06;;;;;;;0.90;0.90;;;25.20;56.70;;;;;;5072856;28;20446;-74
2022/10/29 08:26:33;;;;;;;1.00;0.90;;;24.60;57.40;;;;;;5073090;28;20446;-74
2022/10/29 08:29:01;;;;;;;1.20;1.00;;;24.10;58.90;;;;;;5072829;28;20807;-73
2022/10/29 08:31:27;;;;;;;1.00;0.90;;;23.70;60.40;;;;;;5072694;28;20461;-74
2022/10/29 08:33:54;;;;;;;1.00;1.00;;;23.10;61.50;;;;;;5072763;28;20446;-74
2022/10/29 08:36:21;;;;;;;0.90;0.90;;;22.90;62.50;;;;;;5073039;28;20446;-74
2022/10/29 08:38:48;;;;;;;1.03;0.93;;;22.20;63.40;;;;;;5072702;28;20485;-74
2022/10/29 08:41:28;;;;;;;0.90;0.90;;;21.60;65.20;;;;;;5072496;28;20468;-73
2022/10/29 08:44:31;;;;;;;1.03;0.90;;;21.10;66.40;;;;;;5072752;28;20440;-74
2022/10/29 08:47:07;;;;;;;0.80;0.80;;;20.70;67.70;;;;;;5073296;28;20429;-75
2022/10/29 08:49:40;;;;;;;0.90;0.90;;;20.90;68.60;;;;;;5072507;28;20437;-74
2022/10/29 08:52:10;;;;;;;1.13;0.77;;;20.80;67.90;;;;;;5075981;28;20466;-78
2022/10/29 08:54:41;;;;;;;0.80;0.80;;;20.50;69.50;;;;;;5082062;28;20444;-76
2022/10/29 08:57:14;;;;;;;0.80;0.80;;;20.40;69.70;;;;;;5080162;28;20449;-76
2022/10/29 08:59:49;;;;;;;1.03;0.93;;;20.50;70.10;;;;;;5081496;28;20473;-76
2022/10/29 09:02:17;;;;;;;0.70;0.70;;;20.50;69.30;;;;;;5082091;28;20484;-76
2022/10/29 09:04:44;;;;;;;0.80;0.80;;;20.30;70.40;;;;;;5081394;28;20450;-77
2022/10/29 09:07:26;;;;;;;1.00;0.90;;;20.30;70.20;;;;;;5081009;28;20449;-76
2022/10/29 09:09:59;;;;;;;0.80;0.80;;;20.40;69.50;;;;;;5082459;28;20430;-76
2022/10/29 09:12:47;;;;;;;0.80;0.80;;;20.50;68.80;;;;;;5081537;28;20466;-76
2022/10/29 09:15:29;;;;;;;1.10;1.00;;;20.30;68.90;;;;;;5081165;28;20433;-76
2022/10/29 09:18:19;;;;;;;1.47;1.00;;;20.40;69.70;;;;;;5100316;22;20858;-74
2022/10/29 09:20:53;;;;;;;1.47;0.93;;;20.50;69.30;;;;;;5074858;28;20485;-74
2022/10/29 09:23:28;;;;;;;0.87;0.87;;;20.70;69.20;;;;;;5075119;28;20448;-76
2022/10/29 09:26:02;;;;;;;1.20;0.90;;;20.80;69.80;;;;;;5074914;28;20460;-77
2022/10/29 09:28:39;;;;;;;0.70;0.70;;;21.00;67.10;;;;;;5074885;28;20458;-75
2022/10/29 09:31:21;;;;;;;0.80;0.80;;;20.80;67.70;;;;;;5074913;28;20437;-76
2022/10/29 09:33:51;;;;;;;0.77;0.77;;;20.90;67.50;;;;;;5074553;28;20913;-77
2022/10/29 09:36:20;;;;;;;0.80;0.80;;;21.00;67.10;;;;;;5074356;28;20974;-76
2022/10/29 09:38:54;;;;;;;0.70;0.70;;;21.00;67.00;;;;;;5074603;28;20441;-76
2022/10/29 09:41:24;;;;;;;1.37;0.80;;;21.10;67.50;;;;;;5074832;28;20430;-76
2022/10/29 09:44:00;;;;;;;1.73;0.97;;;21.30;67.50;;;;;;5074572;28;20855;-76
2022/10/29 09:46:37;;;;;;;0.80;0.80;;;21.40;66.80;;;;;;5074927;28;20469;-76
2022/10/29 09:49:15;;;;;;;1.10;1.00;;;21.40;66.90;;;;;;5074507;28;20475;-75
2022/10/29 09:51:49;;;;;;;0.90;0.90;;;21.40;66.90;;;;;;5074326;28;20430;-74
2022/10/29 09:54:16;;;;;;;1.00;1.00;;;21.40;67.40;;;;;;5074386;28;20494;-74
2022/10/29 09:56:46;;;;;;;0.93;0.90;;;21.50;67.10;;;;;;5074385;28;20497;-74
2022/10/29 09:59:21;;;;;;;0.73;0.73;;;21.60;66.90;;;;;;5073991;28;21000;-74
2022/10/29 10:01:49;;;;;;;1.27;1.17;;;21.60;66.30;;;;;;5074382;28;20475;-76
2022/10/29 10:04:22;;;;;;;0.80;0.80;;;21.70;66.30;;;;;;5073692;28;20557;-76
2022/10/29 10:07:04;;;;;;;2.53;0.80;;;21.70;66.00;;;;;;5074234;28;20484;-76
2022/10/29 10:09:51;;;;;;;1.13;1.03;;;21.90;64.90;;;;;;5073822;28;20555;-76
2022/10/29 10:12:19;;;;;;;1.00;0.90;;;21.90;65.60;;;;;;5073823;28;20905;-76
2022/10/29 10:14:46;;;;;;;0.80;0.80;;;22.10;66.10;;;;;;5073729;28;20925;-76
2022/10/29 10:17:14;;;;;;;1.40;1.00;;;22.40;65.70;;;;;;5073720;28;20477;-76
2022/10/29 10:19:47;;;;;;;0.90;0.90;;;22.40;64.10;;;;;;5073848;28;20846;-74
2022/10/29 10:22:19;;;;;;;1.63;0.80;;;22.50;66.00;;;;;;5073534;28;20441;-74
2022/10/29 10:24:46;;;;;;;1.00;0.90;;;22.70;64.50;;;;;;5073396;28;20937;-74
2022/10/29 10:27:27;;;;;;;1.00;0.90;;;22.90;62.70;;;;;;5073674;28;20470;-74
2022/10/29 10:30:11;;;;;;;1.00;0.90;;;23.10;62.60;;;;;;5073740;28;20511;-74
2022/10/29 10:32:39;;;;;;;1.10;1.00;;;23.20;63.20;;;;;;5074370;28;20426;-74
2022/10/29 10:35:25;;;;;;;1.00;0.93;;;23.30;63.00;;;;;;5073521;28;20457;-74
2022/10/29 10:37:51;;;;;;;0.83;0.80;;;23.40;61.20;;;;;;5073526;28;20461;-73
2022/10/29 10:40:23;;;;;;;1.30;0.80;;;23.60;61.30;;;;;;5073038;28;20890;-74
2022/10/29 10:42:51;;;;;;;0.90;0.90;;;23.60;61.10;;;;;;5073058;28;20901;-74
2022/10/29 10:45:26;;;;;;;0.80;0.80;;;23.70;60.40;;;;;;5072908;28;20449;-74
2022/10/29 10:47:57;;;;;;;1.10;0.90;;;23.60;61.00;;;;;;5072880;28;20552;-74
2022/10/29 10:50:28;;;;;;;0.80;0.80;;;23.80;60.80;;;;;;5072828;28;20919;-74
2022/10/29 10:52:57;;;;;;;1.20;1.10;;;24.00;59.90;;;;;;5073902;28;20808;-76
2022/10/29 10:55:28;;;;;;;0.80;0.80;;;24.20;60.40;;;;;;5072749;28;20936;-75
2022/10/29 10:58:01;;;;;;;1.00;0.90;;;24.40;59.80;;;;;;5072743;28;20838;-74
2022/10/29 11:00:35;;;;;;;0.83;0.83;;;24.30;59.20;;;;;;5072821;28;20466;-75
2022/10/29 11:03:13;;;;;;;1.00;0.90;;;24.40;60.60;;;;;;5072988;28;20429;-76
2022/10/29 11:05:43;;;;;;;0.80;0.80;;;24.40;59.50;;;;;;5072452;28;20429;-74
2022/10/29 11:08:16;;;;;;;1.17;1.17;;;24.60;57.50;;;;;;5072382;28;20972;-74
2022/10/29 11:10:48;;;;;;;0.80;0.80;;;24.50;58.00;;;;;;5073524;28;20791;-74
2022/10/29 11:13:18;;;;;;;1.00;1.00;;;24.60;57.00;;;;;;5072721;28;20430;-74
2022/10/29 11:15:51;;;;;;;1.00;0.83;;;24.80;56.00;;;;;;5071960;28;20437;-73
2022/10/29 11:18:24;;;;;;;1.00;0.90;;;25.00;56.60;;;;;;5072487;28;20453;-74
2022/10/29 11:21:02;;;;;;;0.60;0.60;;;25.10;54.80;;;;;;5072772;28;20464;-74
2022/10/29 11:23:41;;;;;;;1.17;1.07;;;25.30;56.60;;;;;;5073446;28;20430;-74
2022/10/29 11:26:14;;;;;;;0.77;0.70;;;25.40;55.30;;;;;;5073313;28;20421;-73
2022/10/29 11:28:47;;;;;;;1.10;0.80;;;25.30;54.70;;;;;;5072970;28;20469;-74
2022/10/29 11:31:20;;;;;;;1.00;0.90;;;25.30;53.40;;;;;;5072616;28;20906;-74
2022/10/29 11:33:58;;;;;;;1.30;1.10;;;25.40;54.90;;;;;;5073171;28;20430;-74
2022/10/29 11:36:29;;;;;;;1.00;0.90;;;25.40;54.50;;;;;;5072807;28;20537;-74
2022/10/29 11:39:01;;;;;;;1.27;1.17;;;25.40;53.00;;;;;;5072580;28;20430;-75
2022/10/29 11:41:37;;;;;;;1.83;0.80;;;25.50;53.20;;;;;;5072792;28;20462;-74
2022/10/29 11:44:08;;;;;;;0.80;0.80;;;25.70;52.40;;;;;;5072438;28;20437;-74
2022/10/29 11:46:42;;;;;;;1.00;1.00;;;25.90;51.10;;;;;;5072470;28;20877;-74
2022/10/29 11:49:23;;;;;;;0.93;0.90;;;26.10;53.40;;;;;;5073221;28;20448;-76
2022/10/29 11:51:59;;;;;;;0.90;0.80;;;26.30;53.00;;;;;;5072553;28;20445;-74
2022/10/29 11:54:41;;;;;;;0.90;0.90;;;26.40;50.70;;;;;;5072925;28;20438;-73
2022/10/29 11:57:16;;;;;;;0.80;0.80;;;26.80;52.30;;;;;;5072292;28;20472;-73
2022/10/29 11:59:55;;;;;;;1.20;1.10;;;27.10;50.20;;;;;;5072347;28;20494;-72
2022/10/29 12:02:31;;;;;;;0.90;0.90;;;27.50;50.90;;;;;;5072427;28;20513;-74
2022/10/29 12:05:05;;;;;;;0.97;0.87;;;27.80;50.30;;;;;;5072411;28;20429;-75
2022/10/29 12:07:51;;;;;;;0.70;0.70;;;28.10;48.30;;;;;;5072943;28;20461;-74
2022/10/29 12:10:38;;;;;;;0.90;0.90;;;28.40;47.70;;;;;;5072267;28;20417;-75
2022/10/29 12:13:17;;;;;;;1.00;1.00;;;28.60;49.00;;;;;;5072330;28;20430;-74
2022/10/29 12:15:51;;;;;;;0.70;0.70;;;28.60;48.70;;;;;;5072093;28;20442;-74
2022/10/29 12:18:27;;;;;;;1.00;0.80;;;28.50;47.50;;;;;;5071907;28;20514;-74
2022/10/29 12:21:03;;;;;;;0.60;0.60;;;28.70;47.80;;;;;;5072102;28;20466;-73
2022/10/29 12:23:40;;;;;;;0.80;0.80;;;28.60;47.10;;;;;;5072190;28;20433;-74
2022/10/29 12:26:12;;;;;;;0.80;0.80;;;28.80;47.70;;;;;;5072763;28;20888;-73
2022/10/29 12:28:48;;;;;;;0.80;0.80;;;28.90;47.40;;;;;;5076509;28;20426;-73
2022/10/29 12:31:25;;;;;;;0.80;0.80;;;29.10;47.10;;;;;;5075842;28;20544;-74
2022/10/29 12:33:59;;;;;;;0.90;0.90;;;29.30;45.10;;;;;;5075435;28;20441;-73
2022/10/29 12:36:38;;;;;;;0.83;0.83;;;29.50;45.50;;;;;;5075665;28;20469;-73
2022/10/29 12:39:10;;;;;;;1.10;1.00;;;29.70;46.20;;;;;;5075383;28;20905;-74
2022/10/29 12:41:40;;;;;;;0.80;0.80;;;29.80;45.50;;;;;;5075727;28;20470;-74
2022/10/29 12:44:12;;;;;;;0.80;0.80;;;29.90;46.00;;;;;;5075946;28;20440;-74
2022/10/29 12:46:42;;;;;;;1.40;0.80;;;30.00;45.20;;;;;;5075700;28;20468;-74
2022/10/29 12:49:18;;;;;;;0.90;0.80;;;29.80;45.50;;;;;;5075587;28;20433;-74
2022/10/29 12:51:53;;;;;;;1.67;1.57;;;29.90;45.30;;;;;;5075603;28;20434;-73
2022/10/29 12:54:32;;;;;;;1.57;1.47;;;29.90;46.20;;;;;;5075449;28;20432;-73
2022/10/29 12:57:18;;;;;;;1.20;1.10;;;29.80;45.10;;;;;;5075158;28;20484;-72
2022/10/29 12:59:45;;;;;;;1.00;0.90;;;29.70;46.80;;;;;;5075165;28;20444;-72
2022/10/29 13:02:42;;;;;;;0.80;0.80;;;30.00;46.20;;;;;;5075815;28;20450;-72
2022/10/29 13:05:40;;;;;;;0.80;0.80;;;30.60;45.50;;;;;;5075537;28;20434;-73
2022/10/29 13:08:33;;;;;;;0.93;0.90;;;30.80;45.90;;;;;;5074933;28;20803;-72
2022/10/29 13:11:00;;;;;;;1.20;0.90;;;31.60;45.50;;;;;;5075177;28;20953;-74
2022/10/29 13:13:55;;;;;;;0.80;0.70;;;32.40;44.60;;;;;;5075222;28;20502;-73
2022/10/29 13:16:29;;;;;;;0.90;0.80;;;33.00;43.70;;;;;;5061687;28;20497;-74
2022/10/29 13:19:18;;;;;;;1.20;1.10;;;33.50;43.10;;;;;;5074829;28;20793;-74
2022/10/29 13:21:59;;;;;;;1.50;0.90;;;33.70;42.30;;;;;;5071822;28;20920;-73
2022/10/29 13:24:28;;;;;;;1.57;1.00;;;33.40;42.40;;;;;;5074840;28;20435;-73
2022/10/29 13:27:00;;;;;;;0.83;0.83;;;33.60;43.00;;;;;;5074553;28;20462;-73
2022/10/29 13:29:47;;;;;;;0.70;0.70;;;34.30;42.10;;;;;;5074695;28;20430;-73
2022/10/29 13:32:30;;;;;;;1.10;1.00;;;35.00;40.80;;;;;;5074617;28;20463;-73
2022/10/29 13:34:58;;;;;;;0.93;0.93;;;35.10;40.80;;;;;;5072521;28;20860;-73
2022/10/29 13:37:39;;;;;;;0.73;0.70;;;35.40;40.40;;;;;;5073538;28;20461;-73
2022/10/29 13:40:39;;;;;;;1.00;0.90;;;35.10;39.90;;;;;;5074609;28;20476;-74
2022/10/29 13:43:12;;;;;;;0.80;0.80;;;34.40;41.00;;;;;;5074464;28;20450;-73
2022/10/29 13:45:44;;;;;;;0.83;0.83;;;33.60;42.70;;;;;;5074557;28;20426;-73
2022/10/29 13:48:18;;;;;;;0.70;0.70;;;33.80;42.70;;;;;;5074325;28;20472;-73
2022/10/29 13:50:49;;;;;;;1.90;0.90;;;34.10;42.60;;;;;;5074294;28;20426;-73
2022/10/29 13:53:21;;;;;;;0.93;0.90;;;34.50;42.10;;;;;;5074272;28;20441;-73
2022/10/29 13:55:50;;;;;;;1.00;0.90;;;34.90;41.60;;;;;;5074284;28;20583;-73
2022/10/29 13:58:26;;;;;;;0.97;0.90;;;34.20;42.90;;;;;;5074161;28;20499;-73
2022/10/29 14:00:56;;;;;;;0.80;0.70;;;34.60;42.70;;;;;;5073686;28;20999;-73
2022/10/29 14:03:28;;;;;;;0.80;0.80;;;34.50;42.10;;;;;;5074338;28;20477;-73
2022/10/29 14:06:00;;;;;;;1.43;1.00;;;33.90;42.50;;;;;;5073985;28;20417;-74
2022/10/29 14:08:34;;;;;;;1.43;0.90;;;33.40;43.40;;;;;;5074036;28;20430;-73
2022/10/29 14:11:09;;;;;;;1.37;1.10;;;33.20;43.50;;;;;;5073943;28;20422;-74
2022/10/29 14:13:45;;;;;;;0.97;0.93;;;32.80;44.90;;;;;;5073940;28;20500;-74
2022/10/29 14:16:14;;;;;;;1.10;1.00;;;32.20;45.10;;;;;;5073582;28;20484;-73
2022/10/29 14:18:42;;;;;;;0.93;0.83;;;31.70;46.30;;;;;;5073868;28;20795;-73
2022/10/29 14:21:15;;;;;;;0.87;0.87;;;31.40;47.40;;;;;;5073266;28;20473;-73
2022/10/29 14:23:55;;;;;;;1.00;0.90;;;31.20;47.90;;;;;;5073683;28;20426;-73
2022/10/29 14:26:23;;;;;;;1.00;0.90;;;30.70;49.10;;;;;;5073789;28;20473;-73
2022/10/29 14:28:51;;;;;;;0.80;0.80;;;30.00;50.50;;;;;;5073595;28;20442;-73
2022/10/29 14:31:19;;;;;;;0.80;0.80;;;29.60;51.70;;;;;;5073659;28;20446;-73
2022/10/29 14:33:52;;;;;;;0.73;0.73;;;29.20;52.40;;;;;;5073373;28;20476;-73
2022/10/29 14:36:26;;;;;;;1.00;0.87;;;28.50;53.80;;;;;;5073048;28;20968;-72
2022/10/29 14:38:57;;;;;;;1.13;1.03;;;28.10;55.00;;;;;;5073091;28;20843;-72
2022/10/29 14:41:27;;;;;;;0.83;0.83;;;28.00;55.40;;;;;;5072959;28;20832;-73
2022/10/29 14:44:03;;;;;;;1.10;1.00;;;27.80;55.40;;;;;;5073341;28;20450;-73
2022/10/29 14:46:33;;;;;;;1.07;1.00;;;27.80;56.50;;;;;;5073336;28;20473;-73
2022/10/29 14:49:05;;;;;;;0.80;0.80;;;27.60;56.20;;;;;;5072984;28;20458;-73
2022/10/29 14:51:38;;;;;;;1.40;1.30;;;27.60;58.00;;;;;;5073202;28;20422;-71
2022/10/29 14:54:07;;;;;;;0.77;0.77;;;27.20;58.30;;;;;;5073160;28;20503;-73
2022/10/29 14:56:38;;;;;;;0.90;0.90;;;27.10;59.10;;;;;;5073031;28;20465;-72
2022/10/29 14:59:14;;;;;;;0.80;0.80;;;27.10;60.70;;;;;;5073024;28;20446;-73
2022/10/29 15:01:55;;;;;;;0.90;0.90;;;27.10;59.90;;;;;;5073691;28;20457;-72
2022/10/29 15:04:25;;;;;;;1.10;1.00;;;27.00;60.30;;;;;;5073341;28;20426;-73
2022/10/29 15:06:52;;;;;;;1.10;1.00;;;27.00;61.40;;;;;;5073198;28;20469;-72
2022/10/29 15:09:26;;;;;;;0.90;0.90;;;26.90;62.00;;;;;;5072988;28;20445;-73
2022/10/29 15:12:02;;;;;;;1.20;1.10;;;26.80;62.00;;;;;;5072994;28;20464;-73
2022/10/29 15:14:37;;;;;;;1.13;1.03;;;26.60;62.80;;;;;;5072817;28;20454;-72
2022/10/29 15:17:17;;;;;;;1.23;1.13;;;26.50;63.30;;;;;;5194214;22;20678;-76
2022/10/29 15:19:46;;;;;;;1.10;1.10;;;26.30;63.30;;;;;;5077259;28;20433;-73
2022/10/29 15:22:19;;;;;;;1.00;1.00;;;26.10;63.50;;;;;;5077152;28;20850;-73
2022/10/29 15:24:50;;;;;;;0.97;0.97;;;25.90;64.10;;;;;;5077093;28;20556;-74
2022/10/29 15:27:18;;;;;;;1.40;1.30;;;25.70;64.40;;;;;;5077995;28;20524;-74
2022/10/29 15:29:47;;;;;;;1.30;1.20;;;25.60;64.70;;;;;;5078513;28;20870;-73
2022/10/29 15:32:16;;;;;;;1.00;1.00;;;25.50;64.90;;;;;;5076883;28;20495;-73
2022/10/29 15:34:47;;;;;;;1.60;1.00;;;25.20;65.50;;;;;;5076954;28;20452;-74
2022/10/29 15:37:22;;;;;;;1.30;1.20;;;25.10;65.70;;;;;;5077592;28;20470;-74
2022/10/29 15:40:07;;;;;;;1.20;1.10;;;25.00;66.20;;;;;;5077339;28;20445;-74
2022/10/29 15:42:37;;;;;;;0.80;0.80;;;24.90;66.50;;;;;;5079758;28;20553;-75
2022/10/29 15:45:18;;;;;;;0.80;0.80;;;24.80;66.30;;;;;;5077910;28;20450;-73
2022/10/29 15:47:47;;;;;;;0.90;0.90;;;24.70;66.50;;;;;;5077364;28;20480;-74
2022/10/29 15:50:16;;;;;;;1.27;0.90;;;24.60;66.80;;;;;;5077005;28;20496;-74
2022/10/29 15:52:45;;;;;;;0.80;0.80;;;24.50;66.70;;;;;;5076726;28;20448;-74
2022/10/29 15:55:22;;;;;;;0.90;0.90;;;24.40;67.20;;;;;;5077235;28;20446;-74
2022/10/29 15:57:51;;;;;;;0.80;0.80;;;24.30;67.70;;;;;;5076720;28;21011;-74
2022/10/29 16:00:21;;;;;;;1.00;1.00;;;24.20;67.70;;;;;;5077540;28;20450;-74
2022/10/29 16:02:48;;;;;;;0.80;0.80;;;24.10;67.70;;;;;;5081244;28;20474;-74
2022/10/29 16:05:16;;;;;;;0.90;0.90;;;24.10;67.80;;;;;;5081015;28;20472;-74
2022/10/29 16:07:44;;;;;;;1.03;1.03;;;24.00;67.90;;;;;;5080967;28;20469;-74
2022/10/29 16:10:16;;;;;;;1.07;1.00;;;23.90;67.80;;;;;;5080701;28;20445;-74